Time;durP1;ratioP1;P1;durP2;ratioP2;P2;SDS_P1;SDS_P2;PMS_P1;PMS_P2;Temp;Humidity;BMP_temperature;BMP_pressure;BME280_temperature;BME280_humidity;BME280_pressure;Samples;Min_cycle;Max_cycle;Signal;HPM_P1;HPM_P2
2022/04/21 00:01:12;;;;;;;31.25;10.75;;;;;;;14.85;39.98;99646.53;4999669;28;20118;-54
2022/04/21 00:03:43;;;;;;;32.67;10.85;;;;;;;14.81;39.62;99618.69;4999629;28;20053;-54
2022/04/21 00:06:14;;;;;;;32.25;9.80;;;;;;;14.98;39.78;99642.47;4999632;28;20086;-55
2022/04/21 00:08:47;;;;;;;29.30;9.88;;;;;;;15.12;39.64;99659.41;4999574;28;20066;-57
2022/04/21 00:11:18;;;;;;;39.72;10.77;;;;;;;15.10;39.45;99668.25;4999611;28;20121;-57
2022/04/21 00:13:48;;;;;;;30.48;10.25;;;;;;;15.14;39.50;99661.03;4999315;28;20073;-57
2022/04/21 00:16:19;;;;;;;37.17;10.00;;;;;;;15.24;39.34;99662.34;4999352;28;20072;-56
2022/04/21 00:18:49;;;;;;;35.33;9.73;;;;;;;15.29;39.44;99665.63;4999542;28;20089;-58
2022/04/21 00:21:20;;;;;;;33.80;11.13;;;;;;;15.45;39.50;99663.16;4999400;28;20062;-58
2022/04/21 00:23:51;;;;;;;26.90;10.77;;;;;;;15.51;38.57;99660.22;4999300;28;20337;-57
2022/04/21 00:26:22;;;;;;;34.13;10.80;;;;;;;15.53;39.06;99639.94;4999036;28;20466;-57
2022/04/21 00:28:53;;;;;;;23.27;9.87;;;;;;;15.63;38.78;99655.34;4999190;28;20289;-57
2022/04/21 00:31:23;;;;;;;26.83;10.43;;;;;;;15.63;39.16;99655.34;4999102;28;20286;-57
2022/04/21 00:33:54;;;;;;;27.65;9.48;;;;;;;15.61;38.60;99662.44;4998254;28;20360;-57
2022/04/21 00:36:25;;;;;;;26.27;10.37;;;;;;;15.69;39.48;99660.28;4999087;28;20369;-56
2022/04/21 00:38:57;;;;;;;33.03;9.80;;;;;;;15.72;39.37;99654.91;4999172;28;20289;-57
2022/04/21 00:41:28;;;;;;;29.03;9.70;;;;;;;15.83;39.34;99657.06;4999190;28;20054;-57
2022/04/21 00:43:59;;;;;;;29.47;10.10;;;;;;;16.00;38.93;99666.75;4999277;28;20282;-58
2022/04/21 00:46:31;;;;;;;27.90;9.30;;;;;;;16.09;38.52;99663.69;4999181;28;20285;-57
2022/04/21 00:49:02;;;;;;;25.77;10.10;;;;;;;16.18;38.01;99653.56;4999034;28;20309;-57
2022/04/21 00:51:33;;;;;;;24.93;9.60;;;;;;;16.32;38.03;99658.13;4999017;28;20324;-57
2022/04/21 00:54:06;;;;;;;23.07;9.07;;;;;;;16.39;37.53;99662.16;4998646;28;20303;-58
2022/04/21 00:56:37;;;;;;;24.83;9.20;;;;;;;16.46;37.20;99659.25;4998376;28;20293;-57
2022/04/21 00:59:09;;;;;;;24.97;9.30;;;;;;;16.56;37.23;99663.13;4998710;28;20623;-56
2022/04/21 01:04:28;;;;;;;24.17;9.13;;;;;;;16.68;36.69;99661.66;4998639;28;20297;-55
2022/04/21 01:06:59;;;;;;;21.77;9.03;;;;;;;16.70;36.87;99663.28;4998419;28;20285;-57
2022/04/21 01:09:31;;;;;;;23.83;9.00;;;;;;;16.76;37.17;99660.31;5002663;28;20597;-58
2022/04/21 01:12:03;;;;;;;25.80;9.03;;;;;;;16.76;37.18;99644.47;5015733;28;20333;-57
2022/04/21 01:14:34;;;;;;;31.67;9.47;;;;;;;16.77;37.38;99654.13;5015416;28;20311;-58
2022/04/21 01:17:05;;;;;;;29.20;9.73;;;;;;;16.91;36.80;99652.56;5002808;28;20324;-58
2022/04/21 01:19:36;;;;;;;22.67;8.97;;;;;;;16.95;36.93;99654.13;5032001;28;20512;-57
2022/04/21 01:22:10;;;;;;;24.43;9.17;;;;;;;17.06;37.05;99662.31;5037511;28;20296;-55
2022/04/21 01:24:41;;;;;;;22.80;8.87;;;;;;;17.14;37.26;99644.28;5035284;28;20290;-56
2022/04/21 01:27:11;;;;;;;30.17;9.07;;;;;;;17.19;36.77;99642.25;5015638;28;20328;-56
2022/04/21 01:29:42;;;;;;;19.93;9.60;;;;;;;17.21;36.14;99650.94;4997962;28;20321;-55
2022/04/21 01:32:13;;;;;;;31.20;10.80;;;;;;;17.16;35.45;99644.22;4997993;28;20289;-57
2022/04/21 01:34:43;;;;;;;31.63;9.47;;;;;;;17.15;35.45;99640.72;4997770;28;20616;-57
2022/04/21 01:42:51;;;;;;;22.17;9.53;;;;;;;17.31;35.25;99637.25;4997808;28;20057;-56
2022/04/21 01:45:22;;;;;;;25.23;10.73;;;;;;;17.49;36.54;99641.53;5011159;28;20296;-54
2022/04/21 01:47:53;;;;;;;26.93;9.33;;;;;;;17.62;35.55;99636.41;5022787;28;20298;-56
2022/04/21 01:50:23;;;;;;;24.47;9.07;;;;;;;17.60;36.00;99636.53;5023720;28;20269;-54
2022/04/21 01:52:57;;;;;;;35.00;10.60;;;;;;;17.63;35.87;99631.06;5023932;28;20289;-56
2022/04/21 01:55:28;;;;;;;23.33;9.07;;;;;;;17.76;35.68;99638.31;5023615;28;20518;-53
2022/04/21 01:57:59;;;;;;;23.73;9.00;;;;;;;17.79;35.33;99624.91;5024071;28;20340;-54
2022/04/21 02:00:30;;;;;;;21.93;8.87;;;;;;;17.78;35.87;99623.22;5023724;28;20351;-55
2022/04/21 02:03:00;;;;;;;22.00;8.87;;;;;;;17.93;36.09;99625.03;5023516;28;20288;-56
2022/04/21 02:05:31;;;;;;;22.10;10.07;;;;;;;17.95;35.45;99625.78;5023671;28;20768;-56
2022/04/21 02:08:04;;;;;;;31.77;10.27;;;;;;;17.88;34.95;99619.16;5023614;28;20641;-56
2022/04/21 02:10:35;;;;;;;22.73;10.00;;;;;;;17.93;35.58;99616.25;5023320;28;20591;-55
2022/04/21 02:13:06;;;;;;;27.70;8.93;;;;;;;18.05;35.04;99621.69;5023683;28;20315;-57
2022/04/21 02:15:37;;;;;;;79.80;28.63;;;;;;;18.12;35.15;99616.88;5023676;28;20553;-55
2022/04/21 02:18:07;;;;;;;28.73;10.57;;;;;;;18.16;35.45;99607.81;5023884;28;20534;-56
2022/04/21 02:20:38;;;;;;;28.27;10.07;;;;;;;17.83;34.86;99569.19;5023190;28;20277;-57
2022/04/21 02:23:11;;;;;;;27.40;9.90;;;;;;;18.14;34.74;99603.56;5023164;28;20487;-57
2022/04/21 02:25:41;;;;;;;26.00;8.23;;;;;;;18.09;34.44;99607.31;5023206;28;20299;-58
2022/04/21 02:28:12;;;;;;;31.87;10.67;;;;;;;18.04;34.56;99598.81;5023358;28;20513;-57
2022/04/21 02:30:43;;;;;;;29.10;10.10;;;;;;;18.17;34.63;99603.38;5023052;28;20453;-57
2022/04/21 02:33:14;;;;;;;69.23;11.20;;;;;;;18.09;34.77;99602.03;5023645;28;20280;-58
2022/04/21 02:35:45;;;;;;;75.70;13.43;;;;;;;18.09;34.44;99602.03;5023291;28;20312;-58
2022/04/21 02:38:17;;;;;;;26.03;8.60;;;;;;;18.11;34.67;99594.88;5022921;28;20348;-58
2022/04/21 02:40:47;;;;;;;29.23;9.33;;;;;;;18.24;34.77;99604.75;5023131;28;20410;-58
2022/04/21 02:43:18;;;;;;;25.07;9.00;;;;;;;18.38;34.67;99591.56;5022899;28;20277;-57
2022/04/21 02:45:49;;;;;;;39.07;10.00;;;;;;;18.57;33.89;99598.38;5023302;28;20289;-58
2022/04/21 02:48:20;;;;;;;42.03;9.63;;;;;;;18.36;34.76;99559.06;5022985;28;20346;-57
2022/04/21 02:50:51;;;;;;;27.20;9.80;;;;;;;18.57;34.55;99587.81;5023139;28;20284;-57
2022/04/21 02:57:19;;;;;;;116.97;14.50;;;;;;;18.60;33.44;99591.13;5023117;28;20625;-58
2022/04/21 02:59:02;;;;;;;19.90;8.23;;;;;;;18.68;32.75;99590.66;5026588;28;20327;-57
2022/04/21 03:01:33;;;;;;;68.70;12.10;;;;;;;18.76;32.64;99596.38;5026752;28;20283;-58
2022/04/21 03:04:04;;;;;;;42.73;9.97;;;;;;;18.70;32.53;99592.28;5026808;28;20331;-57
2022/04/21 03:06:35;;;;;;;30.90;9.67;;;;;;;18.73;32.29;99593.88;5026620;28;20348;-58
2022/04/21 03:09:07;;;;;;;23.70;8.73;;;;;;;18.71;32.90;99601.06;5026842;28;20313;-58
2022/04/21 03:11:38;;;;;;;45.87;12.60;;;;;;;18.77;31.90;99576.91;5026788;28;20296;-57
2022/04/21 03:14:08;;;;;;;35.10;9.20;;;;;;;18.81;33.02;99591.66;5026768;28;20343;-57
2022/04/21 03:16:39;;;;;;;41.50;10.80;;;;;;;18.85;32.88;99601.13;5026862;28;20338;-57
2022/04/21 03:19:10;;;;;;;37.63;9.23;;;;;;;18.78;31.71;99605.06;5026642;28;20343;-57
2022/04/21 03:24:30;;;;;;;42.57;14.60;;;;;;;18.70;32.67;99607.31;5026154;28;20295;-58
2022/04/21 03:27:02;;;;;;;28.67;15.13;;;;;;;18.64;32.42;99589.13;5026421;28;20300;-57
2022/04/21 03:29:50;;;;;;;22.15;10.60;;;;;;;18.67;32.79;99596.88;5025056;28;21022;-57
2022/04/21 03:32:20;;;;;;;37.73;10.43;;;;;;;18.61;32.33;99602.56;5026354;28;20092;-57
2022/04/21 03:34:51;;;;;;;29.30;9.77;;;;;;;18.66;32.84;99611.06;5024990;28;20292;-57
2022/04/21 03:37:22;;;;;;;36.37;9.60;;;;;;;18.40;33.00;99555.28;5025735;28;20667;-55
2022/04/21 03:39:54;;;;;;;30.20;9.73;;;;;;;18.64;32.97;99602.38;5025816;28;20281;-56
2022/04/21 03:42:27;;;;;;;80.37;43.03;;;;;;;18.07;32.55;99524.63;5025831;28;20959;-58
2022/04/21 03:44:58;;;;;;;55.53;23.73;;;;;;;18.52;32.79;99618.06;5025896;28;20276;-57
2022/04/21 03:47:28;;;;;;;32.50;14.17;;;;;;;18.53;33.38;99614.44;5025622;28;20312;-57
2022/04/21 03:49:59;;;;;;;21.83;9.07;;;;;;;18.54;32.69;99602.91;5025324;28;20280;-57
2022/04/21 03:52:30;;;;;;;26.77;9.90;;;;;;;18.60;33.06;99608.81;5024712;28;20331;-56
2022/04/21 03:55:02;;;;;;;23.27;9.77;;;;;;;18.42;33.06;99582.50;5024497;28;20288;-56
2022/04/21 03:57:33;;;;;;;37.83;22.33;;;;;;;18.60;33.41;99616.75;5034744;28;20310;-56
2022/04/21 04:00:04;;;;;;;38.30;11.53;;;;;;;18.69;33.33;99610.88;5035120;28;20762;-57
2022/04/21 04:02:34;;;;;;;41.47;11.77;;;;;;;18.69;32.78;99605.59;5034843;28;20300;-56
2022/04/21 04:05:06;;;;;;;23.63;9.70;;;;;;;18.60;33.35;99608.81;5035152;28;20276;-57
2022/04/21 04:13:13;;;;;;;32.05;11.40;;;;;;;18.62;33.33;99606.91;5033898;28;20346;-56
2022/04/21 04:15:47;;;;;;;27.70;10.20;;;;;;;18.61;33.05;99607.84;5034979;28;20049;-57
2022/04/21 04:18:18;;;;;;;25.33;9.83;;;;;;;18.47;33.44;99622.75;5034891;28;20280;-57
2022/04/21 04:20:49;;;;;;;45.33;10.53;;;;;;;18.53;33.86;99611.81;5034597;28;20527;-57
2022/04/21 04:23:21;;;;;;;26.83;10.83;;;;;;;18.56;33.93;99599.34;5034985;28;20618;-57
2022/04/21 04:25:53;;;;;;;31.23;10.83;;;;;;;18.78;34.34;99620.94;5034891;28;20277;-57
2022/04/21 04:28:24;;;;;;;34.60;11.47;;;;;;;18.89;33.96;99629.06;5034905;28;20273;-57
2022/04/21 04:30:54;;;;;;;118.53;24.23;;;;;;;18.75;33.19;99610.53;5035022;28;20283;-57
2022/04/21 04:33:25;;;;;;;36.93;14.87;;;;;;;18.86;33.51;99634.56;5034788;28;20288;-57
2022/04/21 04:35:56;;;;;;;35.20;14.80;;;;;;;18.72;33.38;99605.41;5035068;28;20318;-56
2022/04/21 04:38:27;;;;;;;29.27;13.37;;;;;;;18.81;33.62;99625.22;5034414;28;20278;-57
2022/04/21 04:42:16;;;;;;;33.60;12.67;;;;;;;18.81;33.93;99626.06;5034862;28;20760;-57
2022/04/21 04:43:49;;;;;;;30.10;11.30;;;;;;;18.74;34.36;99624.69;5034594;28;20307;-57
2022/04/21 04:46:38;;;;;;;37.97;12.67;;;;;;;18.74;33.77;99619.38;5034241;28;20292;-56
2022/04/21 04:49:09;;;;;;;27.58;11.35;;;;;;;18.71;34.70;99624.88;5034655;28;20284;-57
2022/04/21 04:51:42;;;;;;;24.80;11.20;;;;;;;18.70;34.52;99618.75;5034706;28;20232;-57
2022/04/21 04:54:14;;;;;;;31.33;16.70;;;;;;;18.69;33.81;99621.47;5034309;28;20308;-56
2022/04/21 04:56:47;;;;;;;32.97;12.53;;;;;;;18.65;34.02;99617.31;5034317;28;20530;-57
2022/04/21 04:59:18;;;;;;;23.03;11.20;;;;;;;18.69;34.20;99622.31;5034449;28;20636;-57
2022/04/21 05:01:49;;;;;;;29.13;11.63;;;;;;;18.77;34.52;99627.22;5033995;28;20288;-57
2022/04/21 05:04:21;;;;;;;22.40;10.90;;;;;;;18.74;34.14;99616.75;5034306;28;20587;-57
2022/04/21 05:06:53;;;;;;;26.50;11.17;;;;;;;18.84;34.35;99619.72;5034049;28;20290;-56
2022/04/21 05:09:25;;;;;;;35.37;11.60;;;;;;;18.82;34.48;99611.91;5034053;28;20310;-58
2022/04/21 05:11:57;;;;;;;33.37;14.83;;;;;;;18.78;33.58;99599.78;5034265;28;20295;-58
2022/04/21 05:14:29;;;;;;;30.87;12.80;;;;;;;18.88;34.48;99611.50;5033601;28;20288;-58
2022/04/21 05:16:59;;;;;;;22.60;11.23;;;;;;;18.87;34.01;99609.81;5034093;28;20318;-59
2022/04/21 05:19:30;;;;;;;28.17;12.40;;;;;;;18.98;33.78;99605.66;5033474;28;20351;-58
2022/04/21 05:22:03;;;;;;;33.30;11.43;;;;;;;19.02;33.19;99612.44;5033908;28;20304;-58
2022/04/21 05:24:35;;;;;;;29.33;11.60;;;;;;;18.94;33.05;99608.47;5033853;28;20316;-58
2022/04/21 05:27:09;;;;;;;30.93;11.53;;;;;;;18.85;32.51;99611.69;5033566;28;21047;-56
2022/04/21 05:32:30;;;;;;;29.67;13.07;;;;;;;18.91;32.72;99611.31;5033601;28;20284;-58
2022/04/21 05:35:01;;;;;;;36.90;12.57;;;;;;;18.68;32.70;99580.09;5033328;28;20286;-59
2022/04/21 05:37:35;;;;;;;26.00;12.37;;;;;;;18.85;33.33;99606.41;5033594;28;20399;-58
2022/04/21 05:40:07;;;;;;;25.30;12.00;;;;;;;18.91;33.60;99611.31;5033499;28;20507;-56
2022/04/21 05:42:45;;;;;;;29.57;12.03;;;;;;;18.87;33.31;99617.75;5033729;28;20287;-58
2022/04/21 05:45:17;;;;;;;31.95;11.48;;;;;;;18.82;33.21;99617.19;5033466;28;20287;-58
2022/04/21 05:47:48;;;;;;;30.30;12.30;;;;;;;18.82;32.09;99606.59;5033263;28;20041;-58
2022/04/21 05:50:19;;;;;;;29.03;12.67;;;;;;;18.80;32.79;99611.13;5033694;28;21247;-57
2022/04/21 05:52:57;;;;;;;28.80;12.53;;;;;;;18.85;32.82;99610.84;5033220;28;20606;-56
2022/04/21 05:55:28;;;;;;;26.63;12.10;;;;;;;18.84;32.83;99620.56;5033761;28;20323;-57
2022/04/21 05:58:01;;;;;;;32.37;12.83;;;;;;;18.81;33.03;99625.22;5033244;28;20367;-58
2022/04/21 06:00:32;;;;;;;34.50;12.73;;;;;;;18.84;33.10;99609.97;5033407;28;20651;-59
2022/04/21 06:03:03;;;;;;;28.30;13.10;;;;;;;18.81;32.63;99610.16;5033306;28;20282;-59
2022/04/21 06:05:34;;;;;;;44.07;13.57;;;;;;;18.77;33.03;99623.69;5033142;28;20303;-59
2022/04/21 06:08:05;;;;;;;47.07;12.50;;;;;;;18.74;32.30;99624.69;5033263;28;20288;-56
2022/04/21 06:10:37;;;;;;;34.33;13.87;;;;;;;18.68;32.12;99615.31;5033209;28;20367;-57
2022/04/21 06:13:11;;;;;;;40.93;13.23;;;;;;;18.66;32.77;99617.22;5033460;28;20280;-58
2022/04/21 06:15:42;;;;;;;29.33;13.70;;;;;;;18.65;32.42;99593.50;5033129;28;20300;-56
2022/04/21 06:18:13;;;;;;;27.30;13.37;;;;;;;18.66;33.22;99611.06;5033245;28;20371;-59
2022/04/21 06:20:43;;;;;;;27.93;13.40;;;;;;;18.68;33.38;99614.47;5033345;28;20356;-58
2022/04/21 06:23:14;;;;;;;33.27;12.73;;;;;;;18.68;33.13;99614.47;5032822;28;20291;-59
2022/04/21 06:25:45;;;;;;;31.27;13.30;;;;;;;18.68;33.24;99614.47;5033279;28;20280;-60
2022/04/21 06:28:17;;;;;;;28.87;14.40;;;;;;;18.63;32.94;99621.84;5033085;28;20351;-59
2022/04/21 06:30:48;;;;;;;50.17;14.80;;;;;;;18.57;32.45;99617.78;5033015;28;20284;-60
2022/04/21 06:33:19;;;;;;;34.77;14.10;;;;;;;18.51;32.68;99629.56;5037062;28;20289;-59
2022/04/21 06:35:50;;;;;;;42.77;15.20;;;;;;;18.44;32.94;99641.44;5037154;28;20610;-59
2022/04/21 06:38:21;;;;;;;27.13;13.60;;;;;;;18.35;32.76;99623.50;5037046;28;20314;-56
2022/04/21 06:40:51;;;;;;;27.90;14.23;;;;;;;18.37;33.45;99631.31;5036878;28;20391;-59
2022/04/21 06:48:59;;;;;;;43.37;16.00;;;;;;;18.26;33.44;99634.59;5036886;28;20299;-59
2022/04/21 06:51:31;;;;;;;43.93;13.93;;;;;;;18.23;32.76;99624.19;5035955;28;20284;-59
2022/04/21 06:54:02;;;;;;;34.90;15.07;;;;;;;18.22;33.38;99628.66;5036665;28;20327;-60
2022/04/21 06:56:32;;;;;;;34.33;15.37;;;;;;;18.18;33.73;99647.41;5036765;28;20614;-59
2022/04/21 06:59:05;;;;;;;32.80;14.03;;;;;;;18.19;34.00;99638.53;5036490;28;20307;-59
2022/04/21 07:01:36;;;;;;;34.83;15.03;;;;;;;18.16;32.98;99636.06;5036497;28;20276;-59
2022/04/21 07:04:07;;;;;;;30.83;14.00;;;;;;;18.13;33.81;99654.75;5036215;28;20342;-59
2022/04/21 07:06:38;;;;;;;28.57;16.03;;;;;;;18.09;33.86;99646.97;5035670;28;20288;-59
2022/04/21 07:09:09;;;;;;;30.23;15.03;;;;;;;18.05;33.72;99653.41;5035201;28;20458;-59
2022/04/21 07:11:39;;;;;;;29.20;14.73;;;;;;;18.02;34.39;99653.59;5035436;28;20307;-60
2022/04/21 07:14:12;;;;;;;31.27;17.30;;;;;;;18.00;34.22;99655.47;5036268;28;20995;-59
2022/04/21 07:16:43;;;;;;;43.00;16.63;;;;;;;17.94;34.40;99650.50;5036476;28;20288;-58
2022/04/21 07:19:14;;;;;;;31.87;16.17;;;;;;;17.92;35.36;99657.66;5036315;28;20304;-59
2022/04/21 07:21:44;;;;;;;30.47;14.23;;;;;;;17.93;35.51;99679.69;5036058;28;21376;-58
2022/04/21 07:24:15;;;;;;;37.07;14.23;;;;;;;17.59;36.29;99629.50;5036461;28;20294;-59
2022/04/21 07:26:46;;;;;;;30.87;13.30;;;;;;;17.68;36.64;99666.00;5036436;28;20470;-58
2022/04/21 07:29:18;;;;;;;35.47;13.83;;;;;;;17.56;37.18;99677.25;5036177;28;20712;-58
2022/04/21 07:31:49;;;;;;;43.67;15.50;;;;;;;17.45;37.17;99676.97;5035875;28;20611;-58
2022/04/21 07:34:20;;;;;;;44.07;16.43;;;;;;;17.35;37.42;99678.41;5035846;28;20280;-58
2022/04/21 07:36:51;;;;;;;38.73;14.23;;;;;;;17.16;37.72;99665.34;5035618;28;20614;-57
2022/04/21 07:39:22;;;;;;;38.97;14.13;;;;;;;17.17;37.66;99686.38;5035379;28;20640;-58
2022/04/21 07:41:52;;;;;;;35.07;13.10;;;;;;;17.10;37.67;99679.72;5035365;28;20272;-59
2022/04/21 07:44:27;;;;;;;35.70;16.23;;;;;;;17.05;37.90;99679.09;5034734;28;20533;-58
2022/04/21 07:46:58;;;;;;;31.97;13.13;;;;;;;16.95;38.16;99681.38;5034752;28;20328;-59
2022/04/21 07:49:47;;;;;;;41.47;13.60;;;;;;;16.87;37.87;99672.13;5035515;28;20300;-59
2022/04/21 07:55:15;;;;;;;27.87;13.87;;;;;;;16.71;38.04;99657.06;5035286;28;20378;-59
2022/04/21 07:57:47;;;;;;;100.63;18.43;;;;;;;16.65;38.04;99662.66;5033787;28;20689;-58
2022/04/21 08:00:20;;;;;;;37.87;13.00;;;;;;;16.57;37.87;99680.63;5035317;28;20345;-58
2022/04/21 08:02:51;;;;;;;58.07;15.50;;;;;;;16.55;37.87;99687.81;5035438;28;20288;-58
2022/04/21 08:05:23;;;;;;;45.87;13.90;;;;;;;16.42;37.81;99670.88;5035273;28;20304;-58
2022/04/21 08:07:54;;;;;;;28.53;13.07;;;;;;;16.43;37.88;99685.78;5035450;28;20284;-57
2022/04/21 08:10:27;;;;;;;35.60;12.40;;;;;;;16.19;38.24;99649.13;5035347;28;20652;-58
2022/04/21 08:12:59;;;;;;;31.87;13.73;;;;;;;16.23;37.90;99682.34;5035331;28;20272;-58
2022/04/21 08:15:33;;;;;;;28.63;13.67;;;;;;;16.22;38.21;99691.16;5035285;28;20319;-57
2022/04/21 08:18:05;;;;;;;30.20;14.53;;;;;;;16.00;38.14;99648.31;5035087;28;20308;-57
2022/04/21 08:20:36;;;;;;;40.90;15.60;;;;;;;16.11;38.14;99699.59;5035298;28;20280;-58
2022/04/21 08:23:08;;;;;;;28.77;13.00;;;;;;;16.03;38.45;99698.25;5035375;28;20288;-57
2022/04/21 08:34:31;;;;;;;80.80;15.30;;;;;;;15.61;38.92;99699.31;5035071;28;20276;-57
2022/04/21 08:37:03;;;;;;;36.77;13.60;;;;;;;15.57;39.00;99708.25;5034892;28;21234;-56
2022/04/21 08:39:33;;;;;;;50.90;15.37;;;;;;;15.47;39.07;99703.41;5034801;28;20307;-57
2022/04/21 08:42:10;;;;;;;25.97;12.77;;;;;;;15.35;39.42;99698.72;5034875;28;20279;-57
2022/04/21 08:44:43;;;;;;;33.63;11.77;;;;;;;15.30;39.54;99700.69;5034527;28;20342;-57
2022/04/21 08:47:20;;;;;;;33.33;12.60;;;;;;;15.20;39.60;99694.13;5034813;28;20276;-57
2022/04/21 08:49:54;;;;;;;26.80;11.13;;;;;;;15.06;40.18;99697.38;5034604;28;20348;-57
2022/04/21 08:52:25;;;;;;;30.53;12.60;;;;;;;15.02;39.63;99696.63;5034705;28;20292;-57
2022/04/21 08:54:57;;;;;;;44.25;11.90;;;;;;;14.84;40.28;99686.94;5032753;28;20299;-58
2022/04/21 08:57:28;;;;;;;107.87;15.63;;;;;;;14.78;40.16;99708.25;5034280;28;20091;-57
2022/04/21 08:59:59;;;;;;;41.37;12.00;;;;;;;14.40;40.57;99665.97;5034135;28;20320;-57
2022/04/21 09:02:42;;;;;;;69.63;12.75;;;;;;;14.45;40.78;99698.16;5034217;28;20286;-57
2022/04/21 09:05:13;;;;;;;35.80;10.38;;;;;;;14.37;40.50;99708.16;5033914;28;20049;-57
2022/04/21 09:07:48;;;;;;;31.58;11.15;;;;;;;14.27;41.01;99706.81;5033341;28;20091;-56
2022/04/21 09:10:38;;;;;;;34.45;10.43;;;;;;;14.12;41.24;99703.88;5033620;28;20367;-55
2022/04/21 09:13:09;;;;;;;41.58;11.75;;;;;;;13.97;41.22;99704.47;5033368;28;20091;-57
2022/04/21 09:15:43;;;;;;;24.15;10.45;;;;;;;13.84;41.38;99698.00;5033580;28;20054;-56
2022/04/21 09:18:15;;;;;;;23.50;9.57;;;;;;;13.71;41.65;99701.09;5034044;28;20057;-56
2022/04/21 09:20:54;;;;;;;25.33;9.95;;;;;;;13.66;41.53;99694.31;5034109;28;20061;-56
2022/04/21 09:23:34;;;;;;;37.38;10.48;;;;;;;13.59;41.48;99710.28;5033906;28;20915;-56
2022/04/21 09:26:10;;;;;;;26.65;9.80;;;;;;;13.52;41.66;99702.72;5033049;28;20065;-56
2022/04/21 09:28:55;;;;;;;26.40;9.35;;;;;;;13.38;42.00;99700.63;5033910;28;20217;-56
2022/04/21 09:31:27;;;;;;;29.13;9.35;;;;;;;13.36;42.23;99694.56;5033701;28;20053;-56
2022/04/21 09:34:00;;;;;;;32.65;9.20;;;;;;;13.30;42.20;99703.50;5033829;28;20053;-57
2022/04/21 09:36:31;;;;;;;25.13;8.95;;;;;;;13.26;42.23;99699.25;5033701;28;20107;-56
2022/04/21 09:39:03;;;;;;;22.27;8.95;;;;;;;13.21;42.51;99690.69;5033443;28;20049;-56
2022/04/21 09:41:33;;;;;;;28.45;8.18;;;;;;;13.21;42.63;99692.47;5033663;28;20140;-57
2022/04/21 09:47:00;;;;;;;33.80;13.77;;;;;;;13.07;42.73;99685.09;5033432;28;20120;-56
2022/04/21 09:49:39;;;;;;;32.15;15.57;;;;;;;13.01;42.83;99695.81;5033232;28;20057;-55
2022/04/21 09:52:10;;;;;;;37.70;12.93;;;;;;;12.98;42.99;99695.88;5033588;28;20489;-56
2022/04/21 09:54:41;;;;;;;32.97;18.40;;;;;;;12.97;43.23;99694.19;5032912;28;20069;-56
2022/04/21 09:57:12;;;;;;;27.15;10.95;;;;;;;12.93;43.15;99702.16;5033386;28;20616;-56
2022/04/21 09:59:43;;;;;;;26.45;15.60;;;;;;;12.91;43.33;99701.38;5033401;28;20083;-56
2022/04/21 10:02:15;;;;;;;22.30;8.48;;;;;;;12.82;43.85;99709.53;5033272;28;20060;-57
2022/04/21 10:04:51;;;;;;;28.73;10.68;;;;;;;12.21;43.78;99625.16;5033149;28;20045;-55
2022/04/21 10:07:21;;;;;;;36.88;9.63;;;;;;;12.67;43.93;99712.69;5033470;28;20053;-53
2022/04/21 10:09:53;;;;;;;23.95;8.32;;;;;;;12.62;43.89;99730.34;5033406;28;20060;-55
2022/04/21 10:12:24;;;;;;;26.60;7.95;;;;;;;12.52;44.16;99720.16;5033007;28;20112;-55
2022/04/21 10:14:56;;;;;;;48.88;9.02;;;;;;;12.47;44.09;99721.22;5033179;28;20135;-56
2022/04/21 10:17:27;;;;;;;25.17;8.27;;;;;;;12.40;44.48;99715.31;5033145;28;20076;-56
2022/04/21 10:19:59;;;;;;;23.90;8.07;;;;;;;12.33;44.56;99724.28;5032930;28;20076;-56
2022/04/21 10:22:33;;;;;;;23.60;8.70;;;;;;;12.28;44.79;99715.69;5032832;28;20116;-54
2022/04/21 10:25:05;;;;;;;26.80;8.68;;;;;;;12.29;44.66;99726.13;5032906;28;20340;-57
2022/04/21 10:27:38;;;;;;;14.68;6.78;;;;;;;12.20;44.71;99707.25;5032607;28;20120;-56
2022/04/21 10:30:22;;;;;;;20.02;8.15;;;;;;;12.22;44.76;99726.38;5032918;28;20061;-56
2022/04/21 10:32:55;;;;;;;22.38;7.95;;;;;;;12.16;44.85;99726.59;5032816;28;20049;-54
2022/04/21 10:35:57;;;;;;;26.40;7.40;;;;;;;12.17;44.98;99717.81;5032157;28;20100;-53
2022/04/21 10:38:28;;;;;;;20.38;7.60;;;;;;;12.20;44.86;99722.94;5032569;28;20041;-51
2022/04/21 10:41:06;;;;;;;21.67;8.43;;;;;;;12.24;44.66;99724.59;5032047;28;20060;-54
2022/04/21 10:44:04;;;;;;;25.77;9.75;;;;;;;12.20;45.01;99717.72;5032258;28;20057;-53
2022/04/21 10:46:35;;;;;;;22.80;8.57;;;;;;;12.07;45.03;99710.25;5032971;28;20144;-56
2022/04/21 10:49:55;;;;;;;28.05;9.77;;;;;;;12.17;45.20;99713.44;5032403;28;20071;-55
2022/04/21 10:58:50;;;;;;;25.88;9.27;;;;;;;12.26;45.36;99723.63;5042494;28;20084;-55
2022/04/21 11:01:33;;;;;;;22.80;8.93;;;;;;;11.99;45.67;99688.69;5042597;28;20340;-55
2022/04/21 11:04:22;;;;;;;29.42;9.77;;;;;;;12.14;45.80;99733.63;5042546;28;20271;-54
2022/04/21 11:07:11;;;;;;;23.60;9.35;;;;;;;12.07;46.29;99733.81;5042737;28;20442;-53
2022/04/21 11:09:46;;;;;;;22.27;9.25;;;;;;;12.07;46.35;99739.06;5042420;28;20307;-54
2022/04/21 11:12:52;;;;;;;26.00;9.50;;;;;;;11.96;46.84;99745.53;5042548;28;20060;-53
2022/04/21 11:15:39;;;;;;;23.40;8.93;;;;;;;11.93;47.25;99750.84;5042764;28;20078;-53
2022/04/21 11:18:11;;;;;;;23.90;10.60;;;;;;;11.88;47.41;99761.44;5044530;28;20099;-55
2022/04/21 11:20:43;;;;;;;26.10;9.00;;;;;;;11.83;47.54;99760.69;5045954;28;20294;-56
2022/04/21 11:23:25;;;;;;;20.58;9.80;;;;;;;11.78;48.19;99759.97;5045978;28;20070;-55
2022/04/21 11:26:04;;;;;;;30.05;11.60;;;;;;;11.72;48.15;99766.25;5045880;28;20128;-54
2022/04/21 11:28:35;;;;;;;27.30;10.32;;;;;;;11.62;48.52;99778.75;5045868;28;20061;-55
2022/04/21 11:31:06;;;;;;;20.25;9.45;;;;;;;11.53;48.86;99779.03;5045334;28;20285;-55
2022/04/21 11:33:40;;;;;;;24.52;10.50;;;;;;;11.43;49.24;99788.00;5046171;28;20225;-54
2022/04/21 11:36:11;;;;;;;27.92;10.32;;;;;;;11.33;49.67;99776.06;5045896;28;20049;-54
2022/04/21 11:38:42;;;;;;;28.83;10.40;;;;;;;11.32;49.94;99780.47;5045687;28;20255;-53
2022/04/21 11:41:18;;;;;;;25.08;11.23;;;;;;;11.29;49.88;99774.47;5045606;28;20396;-53
2022/04/21 11:43:49;;;;;;;28.73;10.88;;;;;;;11.25;50.25;99767.59;5045731;28;20045;-56
2022/04/21 11:46:22;;;;;;;30.95;11.25;;;;;;;11.01;50.42;99738.59;5045299;28;20049;-54
2022/04/21 11:49:00;;;;;;;24.17;10.82;;;;;;;11.17;50.56;99758.19;5045723;28;20342;-56
2022/04/21 11:51:31;;;;;;;31.13;11.77;;;;;;;11.24;50.66;99777.19;5045426;28;20168;-56
2022/04/21 11:54:05;;;;;;;27.70;10.80;;;;;;;10.93;51.00;99746.66;5045597;28;20045;-55
2022/04/21 11:56:39;;;;;;;27.23;11.45;;;;;;;11.18;51.09;99783.47;5045074;28;20083;-55
2022/04/21 11:59:11;;;;;;;30.13;12.23;;;;;;;11.17;51.14;99786.94;5045063;28;20124;-54
2022/04/21 12:07:19;;;;;;;28.05;12.75;;;;;;;11.19;51.79;99794.78;5045277;28;20048;-57
2022/04/21 12:09:50;;;;;;;31.95;14.93;;;;;;;11.27;51.43;99787.56;5045139;28;20056;-56
2022/04/21 12:12:23;;;;;;;34.67;14.07;;;;;;;11.30;51.23;99791.84;5044754;28;20354;-54
2022/04/21 12:14:54;;;;;;;34.88;14.32;;;;;;;11.31;51.58;99783.13;5044438;28;20049;-57
2022/04/21 12:17:24;;;;;;;35.42;14.32;;;;;;;11.25;51.71;99788.50;5045339;28;20279;-54
2022/04/21 12:20:03;;;;;;;31.10;14.07;;;;;;;11.23;51.49;99792.03;5045307;28;20106;-55
2022/04/21 12:22:34;;;;;;;33.42;14.27;;;;;;;11.22;51.87;99781.59;5044707;28;20501;-57
2022/04/21 12:25:12;;;;;;;34.63;14.75;;;;;;;11.26;51.47;99791.09;5044887;28;20082;-56
2022/04/21 12:27:44;;;;;;;32.67;14.48;;;;;;;11.28;51.68;99788.41;5043692;28;20084;-55
2022/04/21 12:30:17;;;;;;;34.35;16.00;;;;;;;11.31;51.52;99773.53;5047575;28;20071;-56
2022/04/21 12:32:49;;;;;;;33.97;16.60;;;;;;;11.30;51.81;99776.16;5057807;28;20059;-55
2022/04/21 12:35:45;;;;;;;37.55;16.27;;;;;;;11.27;51.83;99776.25;5040208;28;20048;-56
2022/04/21 12:41:04;;;;;;;37.35;15.25;;;;;;;10.92;53.20;99759.75;5057573;28;20065;-56
2022/04/21 12:43:36;;;;;;;38.50;16.55;;;;;;;10.83;53.76;99775.66;5057798;28;20053;-55